Terminal Aerodrome Forecast
Issued by NWS

Home | Current Version | Previous Version | Text Only | Print | Product List | Glossary On
Versions: 1 2 3 4 5 6 7 8 9 10 11 12 13 14 15
462
FTUS41 KCLE 231139
TAFFDY
TAF
KFDY 231139Z 2312/2412 20010KT P6SM -SHRA VCTS OVC008CB
      TEMPO 2312/2314 3SM RA OVC005
     FM231400 23012G20KT 4SM -SHRA VCTS OVC012CB
      TEMPO 2314/2318 24012KT 1SM TSRA OVC006CB
     FM232000 25012G20KT 4SM -RA OVC025
     FM232200 29008KT P6SM OVC035
     FM240400 30006KT P6SM SCT070=

USA.gov is the U.S. government's official web portal to all federal, state and local government web resources and services.